Time;durP1;ratioP1;P1;durP2;ratioP2;P2;SDS_P1;SDS_P2;PMS_P1;PMS_P2;Temp;Humidity;BMP_temperature;BMP_pressure;BME280_temperature;BME280_humidity;BME280_pressure;Samples;Min_cycle;Max_cycle;Signal;HPM_P1;HPM_P2
2022/09/12 00:02:38;;;;;;;;;43.60;36.60;;;;;21.34;48.90;98542.78;6138632;28;96868;-56
2022/09/12 00:05:43;;;;;;;;;38.60;34.60;;;;;21.32;48.91;98542.25;6138689;28;97259;-56
2022/09/12 00:08:47;;;;;;;;;42.60;37.20;;;;;21.31;49.27;98539.81;6151849;28;97436;-55
2022/09/12 00:11:51;;;;;;;;;45.50;39.00;;;;;21.29;48.89;98540.13;6162027;28;97492;-55
2022/09/12 00:14:54;;;;;;;;;32.60;30.80;;;;;21.30;48.96;98538.19;6162534;28;97050;-55
2022/09/12 00:17:57;;;;;;;;;48.20;40.60;;;;;21.27;49.41;98527.81;6161236;28;97443;-56
2022/09/12 00:21:04;;;;;;;;;42.00;36.40;;;;;21.27;49.13;98536.84;6166695;28;97191;-56
2022/09/12 00:24:10;;;;;;;;;46.40;39.00;;;;;21.25;49.22;98532.81;6162611;28;96508;-57
2022/09/12 00:27:13;;;;;;;;;41.00;35.00;;;;;21.23;49.19;98538.56;6161732;28;97272;-56
2022/09/12 00:30:17;;;;;;;;;38.60;34.60;;;;;21.22;49.29;98542.44;6162187;28;97409;-58
2022/09/12 00:33:20;;;;;;;;;43.80;38.40;;;;;21.20;49.30;98532.88;6175278;28;96842;-57
2022/09/12 00:36:25;;;;;;;;;49.20;41.60;;;;;21.17;49.48;98539.78;6178039;28;96660;-57
2022/09/12 00:39:30;;;;;;;;;41.50;36.00;;;;;21.18;49.49;98541.41;6160935;28;97486;-55
2022/09/12 00:42:33;;;;;;;;;44.00;38.00;;;;;21.18;50.21;98539.47;6162084;28;97432;-57
2022/09/12 00:45:41;;;;;;;;;44.40;38.00;;;;;21.20;49.84;98532.88;6161934;28;97032;-55
2022/09/12 00:48:52;;;;;;;;;41.20;36.60;;;;;21.19;50.44;98540.28;6161957;28;96599;-56
2022/09/12 00:52:00;;;;;;;;;50.80;42.40;;;;;21.20;49.93;98541.13;6161779;28;97500;-57
2022/09/12 00:55:10;;;;;;;;;46.50;39.50;;;;;21.19;50.23;98534.81;6161541;28;97049;-55
2022/09/12 00:58:20;;;;;;;;;44.75;37.25;;;;;21.18;49.93;98534.00;6161383;28;97309;-56
2022/09/12 01:01:24;;;;;;;;;49.40;42.00;;;;;21.17;49.75;98534.28;6159913;28;97595;-55
2022/09/12 01:04:37;;;;;;;;;46.00;39.00;;;;;21.15;49.86;98547.50;6162037;28;97075;-57
2022/09/12 01:07:43;;;;;;;;;37.40;34.00;;;;;21.13;49.75;98547.78;6171151;28;97680;-56
2022/09/12 01:10:49;;;;;;;;;37.80;33.80;;;;;21.12;50.03;98545.28;6161687;28;97133;-55
2022/09/12 01:13:52;;;;;;;;;48.75;41.50;;;;;21.10;50.29;98550.28;6161749;28;97192;-57
2022/09/12 01:16:55;;;;;;;;;60.25;50.00;;;;;21.08;50.28;98547.84;6160771;28;98029;-55
2022/09/12 01:20:27;;;;;;;;;49.20;41.00;;;;;21.07;50.03;98548.13;6161331;28;97462;-57
2022/09/12 01:24:05;;;;;;;;;50.40;43.20;;;;;21.05;50.12;98544.88;6161760;28;96380;-57
2022/09/12 01:27:23;;;;;;;;;60.20;50.00;;;;;21.05;50.13;98544.88;6162305;28;97157;-57
2022/09/12 01:30:48;;;;;;;;;47.80;40.00;;;;;21.03;49.83;98547.09;6161362;28;97504;-55
2022/09/12 01:34:02;;;;;;;;;47.80;39.80;;;;;21.01;49.81;98544.63;6161844;28;97953;-57
2022/09/12 01:37:14;;;;;;;;;38.75;35.00;;;;;21.03;50.30;98547.09;6161158;28;97685;-57
2022/09/12 01:40:25;;;;;;;;;43.80;37.60;;;;;21.01;49.67;98543.84;6175151;28;96875;-58
2022/09/12 01:43:36;;;;;;;;;40.40;35.20;;;;;20.99;49.96;98544.13;6187511;28;96822;-59
2022/09/12 01:46:45;;;;;;;;;47.60;40.00;;;;;20.97;50.14;98537.31;6141267;28;97516;-56
2022/09/12 01:49:58;;;;;;;;;49.00;41.00;;;;;20.96;50.07;98538.44;6143870;28;97814;-56
2022/09/12 01:53:07;;;;;;;;;44.20;38.00;;;;;20.97;49.85;98545.53;6165629;28;97470;-55
2022/09/12 01:56:19;;;;;;;;;53.40;45.00;;;;;20.97;49.79;98556.50;6164378;28;97478;-56
2022/09/12 01:59:27;;;;;;;;;50.60;43.20;;;;;20.98;49.69;98553.47;6163978;28;97856;-57
2022/09/12 02:02:37;;;;;;;;;54.50;45.25;;;;;20.97;49.95;98551.00;6164543;28;97969;-58
2022/09/12 02:05:45;;;;;;;;;51.83;43.83;;;;;21.00;49.93;98558.66;6164272;28;96703;-56
2022/09/12 02:08:53;;;;;;;;;32.00;30.40;;;;;20.99;49.70;98562.50;6140579;28;97495;-59
2022/09/12 02:12:01;;;;;;;;;47.40;38.60;;;;;20.99;49.57;98565.25;6159878;28;97310;-58
2022/09/12 02:15:09;;;;;;;;;54.25;45.75;;;;;20.98;49.86;98569.09;6171286;28;97158;-55
2022/09/12 02:18:17;;;;;;;;;52.60;44.60;;;;;20.97;49.91;98557.31;6164248;28;97434;-60
2022/09/12 02:21:22;;;;;;;;;52.20;44.20;;;;;20.86;49.71;98531.19;6164401;28;96633;-55
2022/09/12 02:24:42;;;;;;;;;35.00;32.20;;;;;20.93;49.72;98550.81;6164773;28;96933;-55
2022/09/12 02:27:49;;;;;;;;;50.00;42.83;;;;;20.84;49.66;98538.88;6164461;28;97055;-55
2022/09/12 02:31:01;;;;;;;;;51.00;43.00;;;;;20.92;49.53;98554.66;6165315;28;97478;-61
2022/09/12 02:34:25;;;;;;;;;52.00;43.80;;;;;20.92;49.40;98546.44;6152308;28;97104;-58
2022/09/12 02:37:42;;;;;;;;;43.00;38.00;;;;;20.92;49.14;98557.38;6164421;28;97526;-58
2022/09/12 02:40:46;;;;;;;;;39.00;34.00;;;;;20.88;49.22;98541.84;6164968;28;96449;-57
2022/09/12 02:43:51;;;;;;;;;55.75;46.25;;;;;20.83;49.01;98539.19;6163077;28;96909;-57
2022/09/12 02:47:00;;;;;;;;;44.60;38.60;;;;;20.81;49.37;98541.41;6155068;28;96635;-55
2022/09/12 02:50:07;;;;;;;;;37.80;34.00;;;;;20.71;49.38;98534.97;6163484;28;97217;-61
2022/09/12 02:53:10;;;;;;;;;48.80;41.40;;;;;20.74;49.38;98539.84;6162813;28;96667;-57
2022/09/12 02:56:20;;;;;;;;;45.00;38.75;;;;;20.74;49.12;98541.78;6162527;28;97206;-57
2022/09/12 02:59:25;;;;;;;;;47.50;40.50;;;;;20.72;49.10;98536.59;6163803;28;97243;-56
2022/09/12 03:02:41;;;;;;;;;48.75;40.75;;;;;20.69;48.86;98539.94;6161670;28;97126;-57
2022/09/12 03:05:55;;;;;;;;;44.00;38.00;;;;;20.67;49.36;98547.59;6164111;28;96735;-56
2022/09/12 03:09:06;;;;;;;;;45.20;38.40;;;;;20.64;49.47;98537.25;6163940;28;96990;-55
2022/09/12 03:12:22;;;;;;;;;44.60;37.20;;;;;20.59;49.42;98548.28;6163429;28;96574;-56
2022/09/12 03:15:43;;;;;;;;;47.00;40.00;;;;;20.60;49.33;98543.63;6164234;28;97374;-56
2022/09/12 03:18:56;;;;;;;;;47.00;39.60;;;;;20.56;49.27;98551.63;6153489;28;98175;-56
2022/09/12 03:22:14;;;;;;;;;49.00;40.00;;;;;20.56;49.19;98557.09;6162835;28;96941;-57
2022/09/12 03:25:20;;;;;;;;;46.25;39.25;;;;;20.53;49.58;98552.19;6163185;28;97499;-57
2022/09/12 03:28:24;;;;;;;;;45.75;39.00;;;;;20.52;49.60;98556.06;6163271;28;97436;-57
2022/09/12 03:31:28;;;;;;;;;46.60;39.00;;;;;20.49;49.29;98556.63;6161730;28;98096;-55
2022/09/12 03:34:31;;;;;;;;;34.20;30.60;;;;;20.47;49.64;98553.38;6161057;28;96960;-58
2022/09/12 03:37:36;;;;;;;;;50.00;41.80;;;;;20.45;49.34;98558.34;6162764;28;96554;-55
2022/09/12 03:40:39;;;;;;;;;47.00;39.40;;;;;20.43;49.32;98559.75;6162304;28;96620;-58
2022/09/12 03:43:43;;;;;;;;;51.20;43.00;;;;;20.41;49.63;98556.47;6162842;28;96474;-57
2022/09/12 03:46:47;;;;;;;;;48.80;41.20;;;;;20.41;49.42;98560.03;6160499;28;97561;-57
2022/09/12 03:49:51;;;;;;;;;51.20;43.00;;;;;20.40;49.46;98566.63;6161013;28;97222;-55
2022/09/12 03:52:58;;;;;;;;;49.20;41.00;;;;;20.37;49.76;98569.13;6161000;28;97512;-57
2022/09/12 03:56:06;;;;;;;;;38.00;34.67;;;;;20.38;49.75;98559.81;6171008;28;96924;-57
2022/09/12 03:59:09;;;;;;;;;45.40;37.80;;;;;20.36;49.52;98571.06;6161209;28;96926;-58
2022/09/12 04:02:12;;;;;;;;;44.20;37.60;;;;;20.35;49.55;98580.38;6156593;28;96656;-58
2022/09/12 04:05:16;;;;;;;;;57.50;47.33;;;;;20.34;49.51;98581.47;6158455;28;97130;-57
2022/09/12 04:08:20;;;;;;;;;51.60;44.00;;;;;20.31;49.55;98582.88;6159878;28;97391;-56
2022/09/12 04:11:24;;;;;;;;;44.25;38.00;;;;;20.28;49.63;98575.19;6160667;28;96495;-58
2022/09/12 04:14:27;;;;;;;;;52.83;44.17;;;;;20.29;49.48;98585.06;6161417;28;97451;-56
2022/09/12 04:17:30;;;;;;;;;37.40;33.40;;;;;20.29;49.78;98584.22;6161478;28;96780;-56
2022/09/12 04:20:34;;;;;;;;;45.20;39.20;;;;;20.29;49.71;98578.75;6159120;28;98043;-56
2022/09/12 04:23:38;;;;;;;;;24.20;23.60;;;;;20.28;49.70;98586.16;6159304;28;97151;-54
2022/09/12 04:26:42;;;;;;;;;39.20;34.60;;;;;20.30;49.72;98583.97;6161725;28;97391;-57
2022/09/12 04:29:45;;;;;;;;;50.33;42.50;;;;;20.33;49.69;98587.25;6161329;28;97443;-55
2022/09/12 04:32:48;;;;;;;;;48.50;41.25;;;;;20.32;49.58;98580.97;6150853;28;97220;-57
2022/09/12 04:35:52;;;;;;;;;47.40;40.00;;;;;20.34;49.14;98589.69;6160649;28;97621;-56
2022/09/12 04:38:56;;;;;;;;;48.17;40.83;;;;;20.36;49.38;98586.66;6161543;28;97496;-55
2022/09/12 04:41:59;;;;;;;;;54.50;45.50;;;;;20.39;49.54;98592.34;6164497;28;96367;-56
2022/09/12 04:45:05;;;;;;;;;55.80;46.80;;;;;20.45;49.00;98593.94;6160387;28;97463;-55
2022/09/12 04:48:08;;;;;;;;;54.75;45.75;;;;;20.50;48.89;98595.78;6156848;28;98597;-56
2022/09/12 04:51:14;;;;;;;;;41.40;35.60;;;;;20.55;49.21;98604.75;6159444;28;96926;-57
2022/09/12 04:54:20;;;;;;;;;48.20;41.40;;;;;20.58;49.21;98608.81;6159348;28;97494;-57
2022/09/12 04:57:24;;;;;;;;;51.40;43.80;;;;;20.58;49.06;98606.91;6161202;28;98142;-57
2022/09/12 05:00:28;;;;;;;;;39.83;34.50;;;;;20.61;49.26;98606.34;6159694;28;97506;-57
2022/09/12 05:03:31;;;;;;;;;27.80;26.20;;;;;20.68;49.06;98608.69;6157230;28;97763;-55
2022/09/12 05:06:37;;;;;;;;;56.75;46.00;;;;;20.74;48.89;98610.25;6157283;28;97061;-57
2022/09/12 05:09:41;;;;;;;;;44.50;38.00;;;;;20.82;48.77;98614.28;6155894;28;97657;-57
2022/09/12 05:12:46;;;;;;;;;48.40;41.20;;;;;20.89;48.16;98617.47;6159187;28;97542;-56
2022/09/12 05:15:55;;;;;;;;;48.40;40.40;;;;;;;;6158711;28;97913;-57
2022/09/12 05:18:59;;;;;;;;;50.00;42.00;;;;;21.03;47.86;98629.31;6161611;28;97136;-55
2022/09/12 05:22:03;;;;;;;;;42.40;36.00;;;;;21.11;47.56;98625.94;6161440;28;97621;-56
2022/09/12 05:25:09;;;;;;;;;46.20;38.80;;;;;21.18;47.61;98626.38;6164067;28;96949;-57
2022/09/12 05:28:13;;;;;;;;;50.75;42.00;;;;;21.22;46.75;98630.16;6164188;28;97120;-59
2022/09/12 05:31:18;;;;;;;;;47.00;40.00;;;;;21.29;46.81;98636.09;6166233;28;96821;-56
2022/09/12 05:34:22;;;;;;;;;44.20;38.60;;;;;21.24;46.71;98622.47;6170065;28;97101;-61
2022/09/12 05:37:25;;;;;;;;;41.00;35.20;;;;;21.43;46.52;98638.91;6165563;28;98003;-56
2022/09/12 05:40:30;;;;;;;;;48.00;40.80;;;;;21.49;46.37;98638.53;6163323;28;97576;-58
2022/09/12 05:43:33;;;;;;;;;46.25;38.75;;;;;21.55;46.27;98642.78;6163468;28;97989;-55
2022/09/12 05:46:39;;;;;;;;;46.75;39.75;;;;;21.65;46.17;98641.03;6160511;28;97514;-55
2022/09/12 05:49:44;;;;;;;;;50.40;43.00;;;;;21.72;45.21;98642.25;6162957;28;98086;-57
2022/09/12 05:52:47;;;;;;;;;43.20;37.00;;;;;21.79;45.20;98639.13;6161271;28;96806;-55
2022/09/12 05:56:02;;;;;;;;;44.00;38.00;;;;;21.87;44.97;98643.94;6162298;28;97224;-55
2022/09/12 05:59:07;;;;;;;;;39.40;35.40;;;;;21.73;44.98;98621.94;6161926;28;96863;-57
2022/09/12 06:02:11;;;;;;;;;42.40;36.80;;;;;21.95;44.67;98637.75;6164742;28;97019;-56
2022/09/12 06:05:15;;;;;;;;;46.80;39.40;;;;;22.04;44.46;98650.50;6164512;28;97021;-57
2022/09/12 06:08:19;;;;;;;;;48.50;41.50;;;;;22.15;44.46;98656.63;6163936;28;97582;-58
2022/09/12 06:11:26;;;;;;;;;71.00;62.20;;;;;22.18;43.71;98650.53;6164010;28;97247;-58
2022/09/12 06:14:29;;;;;;;;;53.40;44.20;;;;;22.17;43.70;98651.66;6163641;28;97330;-58
2022/09/12 06:17:33;;;;;;;;;47.50;40.00;;;;;22.16;43.70;98638.22;6161737;28;97200;-56
2022/09/12 06:20:36;;;;;;;;;30.20;29.40;;;;;22.30;43.26;98661.00;6162262;28;96743;-56
2022/09/12 06:23:40;;;;;;;;;43.75;38.00;;;;;22.37;43.41;98653.19;6160917;28;97211;-56
2022/09/12 06:26:46;;;;;;;;;45.40;38.60;;;;;22.40;43.04;98653.41;6161861;28;97050;-60
2022/09/12 06:29:49;;;;;;;;;26.25;24.25;;;;;22.30;42.69;98636.28;6160599;28;98729;-60
2022/09/12 06:32:52;;;;;;;;;57.60;48.20;;;;;22.50;43.11;98665.31;6161370;28;97303;-61
2022/09/12 06:35:56;;;;;;;;;56.20;46.40;;;;;22.64;42.84;98661.44;6163595;28;97588;-58
2022/09/12 06:39:01;;;;;;;;;41.60;36.80;;;;;22.80;42.36;98659.22;6164343;28;96443;-59
2022/09/12 06:42:06;;;;;;;;;42.40;36.00;;;;;22.96;41.96;98663.28;6162674;28;97262;-54
2022/09/12 06:45:11;;;;;;;;;39.60;35.60;;;;;23.15;41.39;98663.13;6173555;28;97278;-58
2022/09/12 06:48:14;;;;;;;;;50.40;43.00;;;;;23.31;40.55;98659.72;6161845;28;97459;-59
2022/09/12 06:51:19;;;;;;;;;45.00;38.40;;;;;23.45;40.29;98664.41;6161518;28;97168;-59
2022/09/12 06:54:25;;;;;;;;;30.00;29.00;;;;;23.57;40.56;98670.16;6160751;28;97551;-57
2022/09/12 06:57:30;;;;;;;;;31.67;30.33;;;;;23.67;39.41;98665.22;6159534;28;97797;-61
2022/09/12 07:00:33;;;;;;;;;40.75;33.75;;;;;23.80;39.62;98660.00;6161384;28;97712;-55
2022/09/12 07:03:38;;;;;;;;;13.80;13.20;;;;;23.89;39.29;98667.19;6161265;28;97533;-60
2022/09/12 07:06:43;;;;;;;;;22.60;22.00;;;;;23.87;39.04;98671.34;6162424;28;96800;-58
2022/09/12 07:09:48;;;;;;;;;47.00;40.33;;;;;23.87;38.66;98669.41;6161252;28;97488;-57
2022/09/12 07:12:53;;;;;;;;;46.40;39.40;;;;;23.94;38.75;98667.06;6162919;28;96880;-61
2022/09/12 07:15:58;;;;;;;;;48.00;41.00;;;;;24.02;38.08;98669.03;6163519;28;96966;-58
2022/09/12 07:19:03;;;;;;;;;31.80;30.00;;;;;24.07;37.78;98674.41;6163811;28;97406;-57
2022/09/12 07:22:07;;;;;;;;;45.40;39.00;;;;;24.14;37.85;98683.03;6163901;28;97503;-58
2022/09/12 07:25:10;;;;;;;;;23.00;21.75;;;;;24.16;37.73;98661.53;6162321;28;97414;-58
2022/09/12 07:28:15;;;;;;;;;45.60;39.60;;;;;24.39;37.56;98681.56;6153010;28;96556;-59
2022/09/12 07:31:19;;;;;;;;;52.40;44.20;;;;;24.36;37.51;98681.41;6163460;28;96705;-59
2022/09/12 07:34:23;;;;;;;;;46.40;39.60;;;;;24.30;36.75;98683.47;6163629;28;97196;-58
2022/09/12 07:37:29;;;;;;;;;46.00;40.00;;;;;24.25;36.88;98682.78;6163657;28;96387;-59
2022/09/12 07:40:33;;;;;;;;;39.40;35.00;;;;;24.28;37.01;98691.25;6162648;28;97544;-58
2022/09/12 07:43:37;;;;;;;;;31.80;30.80;;;;;24.24;36.88;98681.19;6163171;28;97389;-56
2022/09/12 07:46:41;;;;;;;;;35.00;32.40;;;;;24.43;36.66;98690.03;6162947;28;97656;-59
2022/09/12 07:49:44;;;;;;;;;28.60;28.00;;;;;24.46;35.39;98689.38;6162510;28;97218;-59
2022/09/12 07:52:47;;;;;;;;;37.00;33.50;;;;;24.56;35.37;98698.19;6159156;28;97449;-59
2022/09/12 07:55:54;;;;;;;;;41.80;37.00;;;;;24.56;33.88;98683.59;6150380;28;97742;-59
2022/09/12 07:58:59;;;;;;;;;33.75;31.75;;;;;24.55;33.90;98698.50;6160242;28;98867;-59
2022/09/12 08:02:02;;;;;;;;;28.40;28.20;;;;;24.63;34.21;98703.22;6162341;28;96745;-56
2022/09/12 08:05:06;;;;;;;;;33.00;31.75;;;;;24.77;34.75;98700.38;6161157;28;97218;-59
2022/09/12 08:08:09;;;;;;;;;36.25;33.50;;;;;24.95;34.21;98693.81;6161140;28;97529;-57
2022/09/12 08:11:15;;;;;;;;;9.80;9.80;;;;;25.16;32.76;98697.63;6161727;28;96652;-59
2022/09/12 08:14:21;;;;;;;;;56.60;47.60;;;;;25.38;32.48;98697.47;6160564;28;97988;-56
2022/09/12 08:17:24;;;;;;;;;4.00;4.00;;;;;25.60;31.69;98691.03;6160800;28;98949;-57
2022/09/12 08:20:28;;;;;;;;;51.40;43.80;;;;;25.85;31.41;98689.41;6161719;28;98437;-59
2022/09/12 08:23:31;;;;;;;;;29.00;28.50;;;;;26.01;30.73;98697.97;6163195;28;97464;-61
2022/09/12 08:26:35;;;;;;;;;30.00;30.00;;;;;26.14;30.90;98706.09;6161707;28;96811;-62
2022/09/12 08:29:41;;;;;;;;;33.00;31.60;;;;;26.29;29.38;98704.78;6162954;28;96548;-59
2022/09/12 08:32:44;;;;;;;;;7.00;7.00;;;;;26.44;29.24;98701.47;6161807;28;97644;-58
2022/09/12 08:35:47;;;;;;;;;21.60;21.60;;;;;26.56;29.53;98701.59;6162413;28;96414;-60
2022/09/12 08:38:54;;;;;;;;;30.00;30.00;;;;;26.57;29.39;98706.00;6161638;28;98005;-59
2022/09/12 08:42:03;;;;;;;;;52.00;44.00;;;;;26.43;30.28;98683.28;6162327;28;96964;-61
2022/09/12 08:45:19;;;;;;;;;35.40;32.80;;;;;26.50;30.52;98702.91;6141499;28;97101;-59
2022/09/12 08:48:22;;;;;;;;;29.25;29.25;;;;;26.57;30.26;98706.00;6162651;28;96931;-58
2022/09/12 08:51:28;;;;;;;;;28.00;28.00;;;;;26.70;30.08;98693.06;6163354;28;97428;-58
2022/09/12 08:54:33;;;;;;;;;36.50;33.50;;;;;26.91;30.09;98695.94;6167400;28;96575;-57
2022/09/12 08:57:37;;;;;;;;;39.60;35.40;;;;;27.14;29.73;98708.34;6166734;28;96931;-62
2022/09/12 09:00:48;;;;;;;;;29.75;29.25;;;;;27.20;28.94;98715.31;6167064;28;97380;-60
2022/09/12 09:04:33;;;;;;;;;33.20;31.60;;;;;27.27;29.73;98707.28;6166171;28;97160;-60
2022/09/12 09:08:05;;;;;;;;;19.50;19.50;;;;;27.47;29.11;98713.97;6167117;28;96478;-62
2022/09/12 09:11:32;;;;;;;;;23.00;23.00;;;;;27.71;28.08;98713.34;6166997;28;97057;-60
2022/09/12 09:14:49;;;;;;;;;32.00;30.20;;;;;27.95;27.15;98707.94;6164731;28;96526;-60
2022/09/12 09:17:59;;;;;;;;;22.60;22.40;;;;;28.08;28.24;98711.53;6166817;28;97497;-58
2022/09/12 09:21:09;;;;;;;;;20.80;20.00;;;;;27.97;28.40;98687.03;6165815;28;97073;-62
2022/09/12 09:24:17;;;;;;;;;30.40;29.40;;;;;28.16;27.75;98708.72;6166397;28;97494;-58
2022/09/12 09:27:28;;;;;;;;;24.00;24.00;;;;;28.26;27.42;98704.69;6166476;28;97016;-58
2022/09/12 09:30:44;;;;;;;;;26.40;26.40;;;;;28.39;27.59;98696.06;6153469;28;97183;-58
2022/09/12 09:33:51;;;;;;;;;29.00;28.60;;;;;28.59;26.74;98704.66;6166266;28;97400;-61
2022/09/12 09:37:03;;;;;;;;;13.00;13.00;;;;;28.71;26.53;98688.03;6165235;28;96454;-61
2022/09/12 09:40:21;;;;;;;;;23.25;23.00;;;;;29.03;25.32;98701.00;6166297;28;97395;-59
2022/09/12 09:43:27;;;;;;;;;20.40;20.40;;;;;29.23;25.49;98700.06;6164923;28;97064;-59
2022/09/12 09:46:32;;;;;;;;;15.80;15.80;;;;;29.41;24.77;98683.19;6164429;28;97195;-57
2022/09/12 09:49:36;;;;;;;;;21.20;20.80;;;;;29.43;25.56;98701.09;6166019;28;97397;-58
2022/09/12 09:52:40;;;;;;;;;22.20;22.00;;;;;29.51;25.25;98694.63;6165233;28;97536;-59
2022/09/12 09:55:45;;;;;;;;;22.80;22.60;;;;;29.54;25.37;98698.66;6164822;28;97122;-59
2022/09/12 09:58:49;;;;;;;;;21.40;21.00;;;;;29.52;24.62;98693.44;6165810;28;96880;-58
2022/09/12 10:01:55;;;;;;;;;23.00;21.40;;;;;29.58;24.27;98697.59;6165472;28;97387;-60
2022/09/12 10:05:00;;;;;;;;;26.40;26.00;;;;;29.69;23.52;98686.81;6152800;28;96633;-60
2022/09/12 10:08:07;;;;;;;;;18.00;17.50;;;;;29.81;24.13;98697.06;6165854;28;96769;-61
2022/09/12 10:11:21;;;;;;;;;22.75;22.75;;;;;29.87;23.88;98701.19;6165411;28;96600;-61
2022/09/12 10:14:30;;;;;;;;;22.00;22.00;;;;;29.98;23.59;98697.59;6166026;28;96504;-55
2022/09/12 10:17:44;;;;;;;;;23.40;23.40;;;;;30.17;24.22;98691.38;6165233;28;97420;-59
2022/09/12 10:20:48;;;;;;;;;20.60;19.60;;;;;30.37;23.14;98687.56;6165395;28;97562;-62
2022/09/12 10:24:00;;;;;;;;;23.00;23.00;;;;;30.62;22.76;98681.84;6180948;28;96633;-61
2022/09/12 10:27:14;;;;;;;;;24.20;23.20;;;;;30.72;23.42;98687.69;6164451;28;97779;-60
2022/09/12 10:30:20;;;;;;;;;19.60;19.60;;;;;30.94;22.67;98692.59;6166042;28;96476;-61
2022/09/12 10:33:26;;;;;;;;;20.25;20.25;;;;;31.03;22.01;98689.69;6165441;28;96370;-57
2022/09/12 10:36:38;;;;;;;;;21.40;20.80;;;;;31.19;22.19;98692.41;6165429;28;97021;-61
2022/09/12 10:39:52;;;;;;;;;25.20;24.20;;;;;31.32;21.78;98696.72;6165283;28;96506;-62
2022/09/12 10:42:57;;;;;;;;;24.40;24.00;;;;;31.44;20.89;98701.34;6165585;28;97396;-59
2022/09/12 10:46:21;;;;;;;;;17.00;17.00;;;;;31.55;21.23;98697.63;6165125;28;97070;-57
2022/09/12 10:49:28;;;;;;;;;10.80;10.80;;;;;31.61;20.88;98696.22;6164378;28;97621;-61
2022/09/12 10:52:32;;;;;;;;;22.20;21.60;;;;;31.61;21.09;98690.63;6162904;28;96999;-59
2022/09/12 10:55:36;;;;;;;;;18.80;18.80;;;;;31.72;21.26;98696.41;6163145;28;98524;-59
2022/09/12 10:58:58;;;;;;;;;19.80;19.20;;;;;31.88;21.26;98691.59;6164030;28;96881;-60
2022/09/12 11:02:18;;;;;;;;;12.00;12.00;;;;;32.00;21.05;98677.50;6162751;28;97171;-58
2022/09/12 11:05:39;;;;;;;;;22.60;22.60;;;;;31.96;21.01;98686.97;6158898;28;97288;-57
2022/09/12 11:08:53;;;;;;;;;26.00;25.00;;;;;31.89;21.94;98697.97;6159962;28;97525;-59
2022/09/12 11:12:08;;;;;;;;;16.00;16.00;;;;;31.79;20.73;98691.81;6162056;28;97132;-62
2022/09/12 11:15:26;;;;;;;;;22.00;21.20;;;;;31.90;20.47;98688.44;6159782;28;96826;-60
2022/09/12 11:18:44;;;;;;;;;28.80;28.80;;;;;32.01;21.37;98697.84;6161024;28;97204;-59
2022/09/12 11:22:04;;;;;;;;;23.80;23.80;;;;;32.15;21.00;98692.56;6161232;28;97160;-59
2022/09/12 11:25:28;;;;;;;;;17.60;17.60;;;;;32.13;21.15;98683.75;6163953;28;96565;-58
2022/09/12 11:28:40;;;;;;;;;20.00;20.00;;;;;32.11;20.14;98680.50;6164064;28;96530;-59
2022/09/12 11:32:09;;;;;;;;;23.60;22.60;;;;;32.05;20.74;98687.53;6161101;28;97487;-59
2022/09/12 11:35:23;;;;;;;;;29.50;28.50;;;;;31.93;19.90;98688.50;6161985;28;97482;-57
2022/09/12 11:38:43;;;;;;;;;26.75;26.00;;;;;31.85;20.31;98685.94;6164419;28;97014;-62
2022/09/12 11:41:52;;;;;;;;;19.60;18.60;;;;;31.81;20.96;98692.22;6162519;28;96476;-58
2022/09/12 11:45:03;;;;;;;;;23.80;23.80;;;;;31.82;21.03;98681.88;6162945;28;97017;-63
2022/09/12 11:48:15;;;;;;;;;24.25;24.25;;;;;31.89;21.10;98686.81;6163362;28;99000;-59
2022/09/12 11:51:24;;;;;;;;;31.60;30.60;;;;;31.91;20.90;98684.47;6162023;28;97463;-62
2022/09/12 11:54:35;;;;;;;;;4.60;4.20;;;;;31.87;20.50;98689.16;6159784;28;98819;-59
2022/09/12 11:57:43;;;;;;;;;19.00;18.00;;;;;31.83;20.38;98686.28;6161661;28;97965;-58
2022/09/12 12:00:52;;;;;;;;;18.50;18.00;;;;;31.77;20.74;98696.94;6162783;28;96667;-58
2022/09/12 12:03:56;;;;;;;;;12.00;12.00;;;;;31.68;19.95;98695.53;6162509;28;96586;-62
2022/09/12 12:07:05;;;;;;;;;17.00;17.00;;;;;31.50;20.11;98674.81;6163582;28;97430;-60
2022/09/12 12:10:27;;;;;;;;;24.00;23.67;;;;;31.44;20.53;98685.44;6163392;28;98019;-61
2022/09/12 12:13:35;;;;;;;;;24.00;24.00;;;;;31.40;21.13;98690.13;6162704;28;97515;-59
2022/09/12 12:16:41;;;;;;;;;21.00;21.00;;;;;31.38;21.42;98679.34;6162252;28;99699;-60
2022/09/12 12:19:46;;;;;;;;;19.20;19.00;;;;;31.42;20.66;98685.78;6162314;28;96669;-62
2022/09/12 12:22:52;;;;;;;;;23.80;23.80;;;;;31.34;20.08;98681.25;6145030;28;96861;-59
2022/09/12 12:25:59;;;;;;;;;23.75;23.75;;;;;31.33;20.18;98676.03;6160195;28;96574;-61
2022/09/12 12:29:04;;;;;;;;;53.80;45.20;;;;;31.33;20.53;98670.44;6138994;28;97006;-59
2022/09/12 12:32:24;;;;;;;;;36.60;33.60;;;;;31.29;20.59;98680.72;6159488;28;96418;-57
2022/09/12 12:35:38;;;;;;;;;25.00;25.00;;;;;31.18;20.83;98676.91;6163419;28;96484;-62
2022/09/12 12:38:41;;;;;;;;;24.00;23.40;;;;;31.19;20.90;98667.34;6162011;28;96621;-62
2022/09/12 12:41:45;;;;;;;;;20.80;20.00;;;;;31.17;20.54;98676.09;6162571;28;96668;-60
2022/09/12 12:44:51;;;;;;;;;7.60;7.60;;;;;31.09;20.82;98656.78;6162783;28;97452;-60
2022/09/12 12:47:57;;;;;;;;;29.80;29.40;;;;;31.19;21.10;98675.72;6162500;28;96927;-61
2022/09/12 12:51:29;;;;;;;;;14.00;13.80;;;;;31.24;21.29;98672.63;6162999;28;97112;-56
2022/09/12 12:54:50;;;;;;;;;32.25;30.75;;;;;31.11;20.62;98673.94;6162446;28;97102;-60
2022/09/12 12:57:55;;;;;;;;;32.20;30.80;;;;;31.06;20.79;98674.22;6162433;28;97594;-61
2022/09/12 13:01:11;;;;;;;;;27.00;27.00;;;;;31.03;20.87;98669.38;6162149;28;97458;-57
2022/09/12 13:04:18;;;;;;;;;32.00;31.00;;;;;30.89;20.62;98665.03;6163001;28;97106;-62
2022/09/12 13:07:28;;;;;;;;;36.40;33.80;;;;;30.82;20.84;98662.09;6162994;28;96624;-56
2022/09/12 13:10:32;;;;;;;;;17.60;17.40;;;;;30.81;20.82;98660.47;6161848;28;97067;-59
2022/09/12 13:13:39;;;;;;;;;11.60;11.60;;;;;30.74;21.03;98663.06;6162795;28;97327;-59
2022/09/12 13:16:56;;;;;;;;;39.80;35.40;;;;;30.70;21.48;98659.41;6161868;28;96750;-59
2022/09/12 13:20:13;;;;;;;;;33.75;31.75;;;;;30.67;21.41;98654.56;6162159;28;97557;-58
2022/09/12 13:23:31;;;;;;;;;34.20;32.40;;;;;30.54;21.39;98644.72;6162290;28;96619;-57
2022/09/12 13:26:40;;;;;;;;;20.50;20.50;;;;;30.47;20.88;98656.44;6162882;28;96489;-60
2022/09/12 13:29:44;;;;;;;;;15.00;15.00;;;;;30.47;21.69;98661.19;6160785;28;98008;-61
2022/09/12 13:32:48;;;;;;;;;43.60;38.00;;;;;30.41;21.64;98652.28;6162149;28;96393;-60
2022/09/12 13:36:20;;;;;;;;;30.40;30.00;;;;;30.41;21.69;98651.47;6138042;28;97480;-60
2022/09/12 13:39:27;;;;;;;;;22.25;21.50;;;;;30.32;21.24;98659.19;6141468;28;96723;-62
2022/09/12 13:42:40;;;;;;;;;16.75;16.50;;;;;30.24;21.60;98649.06;6166635;28;97388;-60
2022/09/12 13:45:46;;;;;;;;;27.00;26.60;;;;;30.18;22.00;98644.91;6165109;28;97531;-58
2022/09/12 13:48:51;;;;;;;;;25.25;24.75;;;;;30.10;21.88;98652.25;6165563;28;97034;-69
2022/09/12 13:52:01;;;;;;;;;35.00;32.75;;;;;29.88;21.56;98625.81;6165663;28;97393;-63
2022/09/12 13:55:15;;;;;;;;;22.25;22.00;;;;;29.95;21.89;98639.94;6165445;28;96984;-60
2022/09/12 13:58:22;;;;;;;;;44.40;38.40;;;;;29.91;22.30;98644.56;6163878;28;97337;-59
2022/09/12 14:01:38;;;;;;;;;22.80;22.80;;;;;29.90;21.50;98648.53;6163675;28;97059;-62
2022/09/12 14:08:18;;;;;;;;;17.80;17.80;;;;;29.78;21.67;98642.19;6135864;28;97378;-56
2022/09/12 14:11:26;;;;;;;;;20.20;20.20;;;;;29.68;21.18;98646.28;6163203;28;97082;-63
2022/09/12 14:14:34;;;;;;;;;34.20;32.60;;;;;29.63;22.41;98641.78;6162869;28;97177;-60
2022/09/12 14:17:38;;;;;;;;;20.20;20.20;;;;;29.56;22.32;98643.56;6164487;28;96768;-59
2022/09/12 14:20:44;;;;;;;;;22.60;22.00;;;;;29.43;21.88;98647.53;6163518;28;97410;-64
2022/09/12 14:23:49;;;;;;;;;27.40;26.60;;;;;29.36;22.54;98650.09;6160255;28;96935;-59
2022/09/12 14:26:55;;;;;;;;;35.00;32.80;;;;;29.30;22.35;98643.94;6163730;28;96671;-60
2022/09/12 14:30:02;;;;;;;;;13.60;13.60;;;;;29.21;21.89;98643.28;6163654;28;97815;-60